Time;durP1;ratioP1;P1;durP2;ratioP2;P2;SDS_P1;SDS_P2;PMS_P1;PMS_P2;Temp;Humidity;BMP_temperature;BMP_pressure;BME280_temperature;BME280_humidity;BME280_pressure;Samples;Min_cycle;Max_cycle;Signal;HPM_P1;HPM_P2
2023/01/14 00:00:37;;;;;;;3.27;1.40;;;3.90;99.90;;;;;;5003239;28;20185;-73
2023/01/14 00:03:02;;;;;;;2.70;1.30;;;3.90;99.90;;;;;;5028903;28;20210;-73
2023/01/14 00:05:28;;;;;;;1.60;0.87;;;3.90;99.90;;;;;;5018324;28;20183;-73
2023/01/14 00:07:54;;;;;;;1.43;0.90;;;3.90;99.90;;;;;;5005375;28;20188;-73
2023/01/14 00:10:20;;;;;;;2.93;1.23;;;3.90;99.90;;;;;;5014181;28;20438;-73
2023/01/14 00:12:45;;;;;;;2.33;1.00;;;3.90;99.90;;;;;;5019784;28;20191;-73
2023/01/14 00:15:11;;;;;;;6.40;1.27;;;4.00;99.90;;;;;;5012248;28;20810;-73
2023/01/14 00:17:37;;;;;;;2.03;0.80;;;4.00;99.90;;;;;;5027980;28;20218;-73
2023/01/14 00:20:02;;;;;;;6.47;1.47;;;4.00;99.90;;;;;;5030748;28;20428;-73
2023/01/14 00:22:29;;;;;;;1.80;1.03;;;4.00;99.90;;;;;;5030754;28;20185;-73
2023/01/14 00:24:55;;;;;;;1.43;0.70;;;4.00;99.90;;;;;;5031050;28;20175;-73
2023/01/14 00:27:21;;;;;;;2.90;1.27;;;4.00;99.90;;;;;;5031121;28;20504;-73
2023/01/14 00:29:46;;;;;;;11.10;1.43;;;4.00;99.90;;;;;;5033649;28;20639;-73
2023/01/14 00:32:12;;;;;;;1.90;0.73;;;4.00;99.90;;;;;;5020843;28;20262;-73
2023/01/14 00:34:38;;;;;;;5.73;1.10;;;4.00;99.90;;;;;;5023695;28;20585;-73
2023/01/14 00:37:04;;;;;;;5.30;1.40;;;3.90;99.90;;;;;;5002792;28;20783;-73
2023/01/14 00:39:30;;;;;;;3.23;1.20;;;3.90;99.90;;;;;;5025583;28;20467;-73
2023/01/14 00:41:56;;;;;;;2.23;0.80;;;3.90;99.90;;;;;;5020524;28;20463;-73
2023/01/14 00:44:21;;;;;;;3.23;1.43;;;3.80;99.90;;;;;;5023600;28;20183;-73
2023/01/14 00:46:47;;;;;;;1.33;0.90;;;3.80;99.90;;;;;;5031599;28;20185;-73
2023/01/14 00:49:18;;;;;;;12.03;1.13;;;3.80;99.90;;;;;;5025602;28;20258;-73
2023/01/14 00:51:44;;;;;;;3.17;1.00;;;3.80;99.90;;;;;;5032046;28;20900;-73
2023/01/14 00:54:10;;;;;;;2.73;1.13;;;3.80;99.90;;;;;;5033883;28;20421;-73
2023/01/14 00:56:35;;;;;;;2.47;1.00;;;3.80;99.90;;;;;;5029687;28;20187;-73
2023/01/14 00:59:01;;;;;;;2.03;1.00;;;3.90;99.90;;;;;;5025231;28;20848;-72
2023/01/14 01:01:27;;;;;;;1.53;0.97;;;3.90;99.90;;;;;;5029149;28;20210;-73
2023/01/14 01:03:54;;;;;;;1.27;0.53;;;3.90;99.90;;;;;;5024871;28;20639;-73
2023/01/14 01:06:22;;;;;;;22.73;2.20;;;3.90;99.90;;;;;;5020831;28;20187;-73
2023/01/14 01:08:48;;;;;;;3.00;1.47;;;3.90;99.90;;;;;;5028620;28;20429;-73
2023/01/14 01:11:15;;;;;;;2.80;1.03;;;3.90;99.90;;;;;;5028433;28;20846;-73
2023/01/14 01:13:41;;;;;;;5.90;0.80;;;3.90;99.90;;;;;;5013850;28;20513;-73
2023/01/14 01:16:12;;;;;;;2.50;0.83;;;3.90;99.90;;;;;;5032910;28;20504;-73
2023/01/14 01:18:37;;;;;;;8.00;1.00;;;3.90;99.90;;;;;;5033814;28;20202;-73
2023/01/14 01:21:14;;;;;;;2.87;1.20;;;3.90;99.90;;;;;;5031332;28;20487;-73
2023/01/14 01:23:42;;;;;;;2.93;1.20;;;3.90;99.90;;;;;;5005170;28;20213;-73
2023/01/14 01:26:13;;;;;;;3.40;1.60;;;3.90;99.90;;;;;;5033438;28;20449;-73
2023/01/14 01:28:38;;;;;;;7.70;1.67;;;3.90;99.90;;;;;;5032124;28;20832;-72
2023/01/14 01:31:07;;;;;;;4.37;1.57;;;3.90;99.90;;;;;;5022062;28;20539;-73
2023/01/14 01:33:33;;;;;;;5.43;1.57;;;3.80;99.90;;;;;;5019902;28;20183;-73
2023/01/14 01:36:06;;;;;;;3.63;1.50;;;3.80;99.90;;;;;;5024582;28;20414;-73
2023/01/14 01:38:32;;;;;;;2.70;1.13;;;3.80;99.90;;;;;;5002095;28;20484;-73
2023/01/14 01:40:59;;;;;;;16.07;1.67;;;3.80;99.90;;;;;;5004061;28;20410;-73
2023/01/14 01:43:28;;;;;;;1.70;1.00;;;3.80;99.90;;;;;;5000740;28;20447;-73
2023/01/14 01:45:56;;;;;;;2.27;1.03;;;3.70;99.90;;;;;;5029420;28;20426;-73
2023/01/14 01:48:22;;;;;;;8.03;1.37;;;3.70;99.90;;;;;;4999920;28;20778;-73
2023/01/14 01:50:53;;;;;;;2.77;0.90;;;3.70;99.90;;;;;;5017115;28;20450;-73
2023/01/14 01:53:19;;;;;;;6.10;1.00;;;3.60;99.90;;;;;;5030204;28;20457;-73
2023/01/14 01:55:48;;;;;;;5.97;1.87;;;3.60;99.90;;;;;;5021252;28;20460;-73
2023/01/14 01:58:14;;;;;;;1.50;0.80;;;3.60;99.90;;;;;;5013041;28;20457;-73
2023/01/14 02:00:41;;;;;;;2.50;1.00;;;3.60;99.90;;;;;;5013198;28;20410;-73
2023/01/14 02:03:19;;;;;;;3.73;1.10;;;3.60;99.90;;;;;;5030936;28;20421;-73
2023/01/14 02:05:46;;;;;;;1.53;0.77;;;3.70;99.90;;;;;;5019132;28;20418;-73
2023/01/14 02:08:12;;;;;;;3.30;1.30;;;3.70;99.90;;;;;;5027604;28;21079;-73
2023/01/14 02:11:09;;;;;;;1.23;0.53;;;3.70;99.90;;;;;;5019254;28;20426;-73
2023/01/14 02:14:07;;;;;;;1.30;0.53;;;3.60;99.90;;;;;;5014121;28;20184;-73
2023/01/14 02:16:48;;;;;;;1.77;0.70;;;3.60;99.90;;;;;;5005871;28;20418;-73
2023/01/14 02:19:48;;;;;;;4.83;1.20;;;3.60;99.90;;;;;;5016524;28;20475;-73
2023/01/14 02:22:31;;;;;;;3.47;1.57;;;3.60;99.90;;;;;;5031940;28;20532;-73
2023/01/14 02:25:06;;;;;;;2.07;0.80;;;3.60;99.90;;;;;;5032380;28;20413;-73
2023/01/14 02:27:47;;;;;;;2.20;0.80;;;3.50;99.90;;;;;;5032151;28;20436;-73
2023/01/14 02:30:22;;;;;;;2.80;1.27;;;3.50;99.90;;;;;;5032179;28;20414;-73
2023/01/14 02:33:18;;;;;;;3.13;1.13;;;3.50;99.90;;;;;;5032132;28;20413;-73
2023/01/14 02:35:58;;;;;;;2.23;1.03;;;3.40;99.90;;;;;;5030586;28;20528;-73
2023/01/14 02:38:41;;;;;;;3.50;0.97;;;3.40;99.90;;;;;;5003028;28;20916;-73
2023/01/14 02:41:12;;;;;;;4.40;0.70;;;3.40;99.90;;;;;;5014619;28;20417;-73
2023/01/14 02:44:10;;;;;;;2.50;0.87;;;3.50;99.90;;;;;;5031442;28;20437;-73
2023/01/14 02:46:56;;;;;;;1.70;0.80;;;3.40;99.90;;;;;;5032219;28;20413;-73
2023/01/14 02:49:26;;;;;;;2.20;1.13;;;3.40;99.90;;;;;;5020050;28;21344;-73
2023/01/14 02:51:54;;;;;;;5.13;0.70;;;3.40;99.90;;;;;;5030742;28;20459;-73
2023/01/14 02:54:20;;;;;;;1.60;0.70;;;3.40;99.90;;;;;;5031792;28;20460;-73
2023/01/14 02:56:48;;;;;;;3.10;1.00;;;3.40;99.90;;;;;;5025808;28;20445;-73
2023/01/14 02:59:25;;;;;;;4.07;1.00;;;3.30;99.90;;;;;;5024568;28;20179;-73
2023/01/14 03:02:29;;;;;;;1.60;1.00;;;3.30;99.90;;;;;;5006939;28;20437;-73
2023/01/14 03:05:17;;;;;;;3.10;1.43;;;3.20;99.90;;;;;;5031270;28;20409;-73
2023/01/14 03:07:50;;;;;;;11.53;0.97;;;3.20;99.90;;;;;;5020433;28;20444;-73
2023/01/14 03:10:28;;;;;;;3.40;0.90;;;3.20;99.90;;;;;;5031501;28;20421;-73
2023/01/14 03:13:18;;;;;;;3.30;1.00;;;3.20;99.90;;;;;;5019096;28;20543;-73
2023/01/14 03:15:47;;;;;;;7.37;2.03;;;3.20;99.90;;;;;;5021405;28;20413;-73
2023/01/14 03:18:20;;;;;;;2.27;1.10;;;3.20;99.90;;;;;;5021008;28;20898;-72
2023/01/14 03:20:55;;;;;;;1.30;0.63;;;3.20;99.90;;;;;;5027179;28;20443;-73
2023/01/14 03:23:23;;;;;;;1.23;0.70;;;3.10;99.90;;;;;;5031213;28;20421;-73
2023/01/14 03:25:53;;;;;;;1.73;0.80;;;3.10;99.90;;;;;;5018152;28;20428;-73
2023/01/14 03:28:26;;;;;;;3.50;0.93;;;3.10;99.90;;;;;;5031313;28;20500;-73
2023/01/14 03:30:57;;;;;;;3.53;0.97;;;3.10;99.90;;;;;;4998890;28;20450;-73
2023/01/14 03:33:32;;;;;;;2.30;0.90;;;3.20;99.90;;;;;;5024465;28;20425;-73
2023/01/14 03:35:59;;;;;;;3.63;1.20;;;3.10;99.90;;;;;;5020463;28;20577;-73
2023/01/14 03:38:30;;;;;;;3.07;0.90;;;3.20;99.90;;;;;;5018007;28;20470;-73
2023/01/14 03:40:57;;;;;;;5.20;0.90;;;3.10;99.90;;;;;;5020884;28;20473;-73
2023/01/14 03:43:46;;;;;;;2.70;0.90;;;3.10;99.90;;;;;;5012350;28;20442;-73
2023/01/14 03:46:11;;;;;;;2.60;0.80;;;3.10;99.90;;;;;;5023385;28;20409;-73
2023/01/14 03:48:37;;;;;;;1.93;0.90;;;3.10;99.90;;;;;;5024581;28;20463;-73
2023/01/14 03:51:28;;;;;;;1.47;0.70;;;3.10;99.90;;;;;;5023886;28;20186;-72
2023/01/14 03:54:12;;;;;;;4.90;1.23;;;3.10;99.90;;;;;;5010202;28;20455;-73
2023/01/14 03:56:40;;;;;;;4.33;1.63;;;3.10;99.90;;;;;;5026292;28;20414;-73
2023/01/14 03:59:36;;;;;;;3.67;0.80;;;3.10;99.90;;;;;;5022918;28;20507;-73
2023/01/14 04:02:03;;;;;;;1.50;0.70;;;3.20;99.90;;;;;;5016023;28;20914;-73
2023/01/14 04:04:30;;;;;;;3.30;0.97;;;3.10;99.90;;;;;;5013367;28;20801;-73
2023/01/14 04:06:56;;;;;;;4.47;1.13;;;3.20;99.90;;;;;;5017962;28;20469;-73
2023/01/14 04:09:21;;;;;;;1.50;0.80;;;3.20;99.90;;;;;;5031991;28;20814;-73
2023/01/14 04:11:47;;;;;;;3.00;0.80;;;3.20;99.90;;;;;;5031664;28;20651;-73
2023/01/14 04:16:57;;;;;;;3.53;1.13;;;3.20;99.90;;;;;;5028055;28;20197;-73
2023/01/14 04:19:23;;;;;;;7.53;0.80;;;3.20;99.90;;;;;;5034351;28;20417;-73
2023/01/14 04:21:48;;;;;;;1.37;0.70;;;3.20;99.90;;;;;;5020319;28;20617;-73
2023/01/14 04:24:14;;;;;;;6.80;1.03;;;3.30;99.90;;;;;;5021937;28;20201;-73
2023/01/14 04:26:39;;;;;;;1.40;0.73;;;3.30;99.90;;;;;;5034690;28;20179;-74
2023/01/14 04:29:05;;;;;;;2.20;0.80;;;3.40;99.90;;;;;;5023168;28;20263;-73
2023/01/14 04:31:31;;;;;;;1.10;0.50;;;3.40;99.90;;;;;;5034381;28;20189;-73
2023/01/14 04:33:56;;;;;;;1.20;0.50;;;3.40;99.90;;;;;;5034361;28;20635;-73
2023/01/14 04:36:22;;;;;;;6.83;1.33;;;3.40;99.90;;;;;;5021877;28;20647;-73
2023/01/14 04:38:47;;;;;;;2.60;0.90;;;3.40;99.90;;;;;;5020852;28;20214;-73
2023/01/14 04:43:57;;;;;;;8.20;1.20;;;3.30;99.90;;;;;;5003321;28;20290;-72
2023/01/14 04:46:23;;;;;;;2.43;1.23;;;3.30;99.90;;;;;;5014148;28;20453;-73
2023/01/14 04:48:49;;;;;;;1.60;0.80;;;3.30;99.90;;;;;;5022522;28;20186;-72
2023/01/14 04:51:14;;;;;;;7.70;1.50;;;3.30;99.90;;;;;;5021833;28;20198;-73
2023/01/14 04:53:40;;;;;;;4.70;1.40;;;3.30;99.90;;;;;;5034208;28;20194;-73
2023/01/14 04:56:06;;;;;;;2.70;0.90;;;3.20;99.90;;;;;;5019551;28;20179;-73
2023/01/14 04:58:31;;;;;;;6.20;1.03;;;3.20;99.90;;;;;;5006670;28;20655;-73
2023/01/14 05:00:57;;;;;;;2.73;1.00;;;3.20;99.90;;;;;;5023422;28;20891;-73
2023/01/14 05:03:23;;;;;;;1.63;0.90;;;3.20;99.90;;;;;;5024490;28;20198;-73
2023/01/14 05:05:49;;;;;;;5.60;1.60;;;3.20;99.90;;;;;;5015067;28;20246;-73
2023/01/14 05:08:14;;;;;;;3.73;1.37;;;3.20;99.90;;;;;;5028855;28;20421;-73
2023/01/14 05:10:40;;;;;;;7.43;1.13;;;3.20;99.90;;;;;;5020717;28;20229;-73
2023/01/14 05:13:07;;;;;;;7.40;1.47;;;3.20;99.90;;;;;;5033361;28;20193;-73
2023/01/14 05:15:44;;;;;;;1.87;0.80;;;3.30;99.90;;;;;;5028195;28;20183;-73
2023/01/14 05:18:11;;;;;;;4.57;1.13;;;3.30;99.90;;;;;;5023206;28;20499;-73
2023/01/14 05:20:38;;;;;;;1.77;1.03;;;3.30;99.90;;;;;;5027904;28;20435;-73
2023/01/14 05:23:07;;;;;;;2.03;0.90;;;3.30;99.90;;;;;;5033169;28;20413;-73
2023/01/14 05:25:34;;;;;;;3.20;1.10;;;3.40;99.90;;;;;;5033300;28;20417;-73
2023/01/14 05:28:02;;;;;;;1.50;0.50;;;3.40;99.90;;;;;;5027698;28;20465;-73
2023/01/14 05:30:28;;;;;;;2.80;0.93;;;3.50;99.90;;;;;;5030458;28;20433;-73
2023/01/14 05:32:54;;;;;;;3.60;0.90;;;3.60;99.90;;;;;;5022664;28;20422;-73
2023/01/14 05:35:20;;;;;;;6.27;0.90;;;3.60;99.90;;;;;;5026586;28;20437;-73
2023/01/14 05:37:45;;;;;;;4.17;1.00;;;3.70;99.90;;;;;;5015318;28;20470;-73
2023/01/14 05:40:11;;;;;;;8.03;2.00;;;3.70;99.90;;;;;;5026847;28;20314;-73
2023/01/14 05:48:05;;;;;;;3.87;1.87;;;3.80;99.90;;;;;;5030696;28;20424;-73
2023/01/14 05:50:32;;;;;;;3.70;1.20;;;3.90;99.90;;;;;;5013990;28;20414;-73
2023/01/14 05:52:57;;;;;;;1.40;0.90;;;3.90;99.90;;;;;;5024890;28;20220;-73
2023/01/14 05:55:23;;;;;;;3.00;0.80;;;3.90;99.90;;;;;;5013452;28;20842;-73
2023/01/14 05:57:49;;;;;;;2.13;0.90;;;3.90;99.90;;;;;;5027945;28;20206;-73
2023/01/14 06:08:29;;;;;;;4.50;1.13;;;3.80;99.90;;;;;;5014749;28;20407;-73
2023/01/14 06:10:54;;;;;;;5.23;1.23;;;3.80;99.90;;;;;;5032637;28;20504;-74
2023/01/14 06:13:22;;;;;;;3.97;0.93;;;3.80;99.90;;;;;;5021425;28;20852;-73
2023/01/14 06:15:51;;;;;;;3.63;1.27;;;3.80;99.90;;;;;;5015390;28;20222;-73
2023/01/14 06:18:21;;;;;;;3.33;1.40;;;3.80;99.90;;;;;;5032580;28;20453;-73
2023/01/14 06:20:51;;;;;;;6.33;0.93;;;3.80;99.90;;;;;;5026140;28;20409;-73
2023/01/14 06:23:18;;;;;;;3.77;0.97;;;3.80;99.90;;;;;;5032020;28;20451;-73
2023/01/14 06:25:45;;;;;;;5.53;1.43;;;3.80;99.90;;;;;;5031814;28;20452;-72
2023/01/14 06:28:12;;;;;;;7.30;1.57;;;3.70;99.90;;;;;;5021460;28;20426;-73
2023/01/14 06:30:37;;;;;;;1.30;0.60;;;3.80;99.90;;;;;;5016812;28;21187;-73
2023/01/14 06:33:03;;;;;;;4.20;1.23;;;3.80;99.90;;;;;;5031816;28;20421;-73
2023/01/14 06:35:28;;;;;;;2.20;1.07;;;3.90;99.90;;;;;;5032030;28;20265;-73
2023/01/14 06:37:54;;;;;;;3.63;1.63;;;3.90;99.90;;;;;;5022316;28;20562;-73
2023/01/14 06:40:20;;;;;;;7.23;1.23;;;3.90;99.90;;;;;;5029629;28;20178;-73
2023/01/14 06:42:45;;;;;;;4.43;2.40;;;4.00;99.90;;;;;;5021109;28;20609;-73
2023/01/14 06:45:12;;;;;;;5.47;1.97;;;4.00;99.90;;;;;;5025752;28;20182;-73
2023/01/14 06:47:38;;;;;;;3.53;1.20;;;4.10;99.90;;;;;;5022991;28;20906;-73
2023/01/14 06:50:07;;;;;;;6.20;1.40;;;4.20;99.90;;;;;;5027960;28;20425;-73
2023/01/14 06:52:32;;;;;;;3.50;1.50;;;4.20;99.90;;;;;;5022970;28;20417;-73
2023/01/14 06:54:58;;;;;;;6.23;1.13;;;4.20;99.90;;;;;;5031693;28;20965;-73
2023/01/14 06:57:25;;;;;;;3.20;0.80;;;4.20;99.90;;;;;;5032123;28;20206;-73
2023/01/14 06:59:52;;;;;;;7.97;2.03;;;4.20;99.90;;;;;;5030232;28;20424;-73
2023/01/14 07:02:18;;;;;;;10.47;1.20;;;4.20;99.90;;;;;;5031165;28;20428;-73
2023/01/14 07:04:44;;;;;;;2.37;1.23;;;4.30;99.90;;;;;;5018021;28;20426;-73
2023/01/14 07:07:10;;;;;;;3.77;1.17;;;4.30;99.90;;;;;;5023599;28;20186;-73
2023/01/14 07:09:36;;;;;;;3.30;1.20;;;4.30;99.90;;;;;;5026118;28;20202;-73
2023/01/14 07:12:02;;;;;;;7.23;1.63;;;4.30;99.90;;;;;;5023050;28;20460;-73
2023/01/14 07:14:28;;;;;;;5.23;1.13;;;4.30;99.90;;;;;;5013224;28;20191;-73
2023/01/14 07:16:54;;;;;;;3.73;1.33;;;4.30;99.90;;;;;;5011484;28;20874;-72
2023/01/14 07:19:19;;;;;;;2.20;1.07;;;4.30;99.90;;;;;;5030338;28;20183;-73
2023/01/14 07:21:45;;;;;;;3.30;1.23;;;4.30;99.90;;;;;;5025220;28;20257;-73
2023/01/14 07:24:11;;;;;;;4.33;1.20;;;4.30;99.90;;;;;;5017781;28;20229;-73
2023/01/14 07:26:37;;;;;;;2.60;1.03;;;4.30;99.90;;;;;;5031393;28;20190;-72
2023/01/14 07:29:03;;;;;;;3.23;0.83;;;4.30;99.90;;;;;;5017833;28;20886;-74
2023/01/14 07:31:29;;;;;;;4.40;1.70;;;4.40;99.90;;;;;;5018798;28;20271;-73
2023/01/14 07:33:54;;;;;;;3.87;1.50;;;4.40;99.90;;;;;;5029557;28;20507;-73
2023/01/14 07:36:20;;;;;;;11.10;2.00;;;4.40;99.90;;;;;;5019375;28;20625;-73
2023/01/14 07:38:46;;;;;;;6.97;0.93;;;4.40;99.90;;;;;;5016038;28;20224;-73
2023/01/14 07:41:13;;;;;;;2.87;1.40;;;4.40;99.90;;;;;;5031124;28;20219;-73
2023/01/14 07:43:39;;;;;;;9.50;1.17;;;4.50;99.90;;;;;;5014320;28;20354;-73
2023/01/14 07:46:09;;;;;;;3.67;1.77;;;4.50;99.90;;;;;;5014004;28;20422;-73
2023/01/14 07:48:34;;;;;;;4.90;1.40;;;4.50;99.90;;;;;;5024336;28;20689;-73
2023/01/14 07:51:03;;;;;;;6.93;1.50;;;4.50;99.90;;;;;;5015121;28;20517;-73
2023/01/14 07:53:28;;;;;;;20.07;2.53;;;4.50;99.90;;;;;;5029942;28;20645;-73
2023/01/14 07:55:54;;;;;;;2.80;1.47;;;4.50;99.90;;;;;;5031276;28;20508;-73
2023/01/14 07:58:21;;;;;;;3.97;1.53;;;4.50;99.90;;;;;;5031051;28;20212;-73
2023/01/14 08:00:47;;;;;;;6.23;1.40;;;4.60;99.90;;;;;;5018584;28;20225;-73
2023/01/14 08:03:13;;;;;;;6.33;1.80;;;4.60;99.90;;;;;;5029977;28;20449;-73
2023/01/14 08:05:39;;;;;;;4.23;1.57;;;4.60;99.90;;;;;;5017805;28;20440;-73
2023/01/14 08:08:04;;;;;;;2.87;1.37;;;4.60;99.90;;;;;;5019981;28;20443;-73
2023/01/14 08:10:30;;;;;;;9.53;2.13;;;4.60;99.90;;;;;;5030886;28;20190;-73
2023/01/14 08:12:56;;;;;;;4.60;1.30;;;4.60;99.90;;;;;;5023010;28;20714;-73
2023/01/14 08:15:21;;;;;;;2.27;1.00;;;4.70;99.90;;;;;;5011149;28;20191;-72
2023/01/14 08:17:47;;;;;;;4.50;1.27;;;4.80;99.90;;;;;;5030898;28;20221;-73
2023/01/14 08:20:13;;;;;;;7.00;0.97;;;4.80;99.90;;;;;;5025345;28;20183;-73
2023/01/14 08:22:39;;;;;;;3.30;1.60;;;4.90;99.90;;;;;;5024400;28;20225;-73
2023/01/14 08:25:05;;;;;;;1.77;1.03;;;5.00;99.90;;;;;;4998497;28;20414;-73
2023/01/14 08:27:31;;;;;;;4.20;1.33;;;5.20;99.90;;;;;;5029521;28;20186;-73
2023/01/14 08:29:56;;;;;;;5.23;1.90;;;5.30;99.90;;;;;;5030260;28;20519;-73
2023/01/14 08:32:23;;;;;;;2.00;0.90;;;5.30;99.90;;;;;;5017175;28;20189;-73
2023/01/14 08:34:49;;;;;;;6.30;0.97;;;5.40;99.90;;;;;;5030279;28;20182;-73
2023/01/14 08:37:15;;;;;;;1.77;0.80;;;5.40;99.90;;;;;;5024437;28;20487;-73
2023/01/14 08:39:40;;;;;;;3.00;1.60;;;5.40;99.90;;;;;;5010686;28;20187;-73
2023/01/14 08:42:06;;;;;;;6.47;1.43;;;5.40;99.90;;;;;;5028710;28;20290;-73
2023/01/14 08:44:32;;;;;;;2.70;1.03;;;5.40;99.90;;;;;;5030521;28;20182;-73
2023/01/14 08:46:57;;;;;;;4.40;1.40;;;5.50;99.90;;;;;;5017330;28;20630;-73
2023/01/14 08:49:23;;;;;;;10.47;1.20;;;5.50;99.90;;;;;;5030782;28;20265;-73
2023/01/14 08:51:49;;;;;;;3.53;0.90;;;5.50;99.90;;;;;;5033456;28;20643;-73
2023/01/14 08:54:15;;;;;;;5.90;1.70;;;5.60;99.90;;;;;;5033897;28;20258;-73
2023/01/14 08:56:40;;;;;;;2.47;1.20;;;5.60;99.90;;;;;;5015591;28;20650;-73
2023/01/14 08:59:06;;;;;;;3.07;1.13;;;5.60;99.90;;;;;;5013900;28;20457;-73
2023/01/14 09:01:32;;;;;;;1.17;0.63;;;5.70;99.90;;;;;;5032574;28;20186;-73
2023/01/14 09:03:59;;;;;;;6.63;1.03;;;5.70;99.90;;;;;;5022154;28;20266;-72
2023/01/14 09:06:26;;;;;;;2.17;0.90;;;5.70;99.90;;;;;;5016544;28;20314;-73
2023/01/14 09:17:18;;;;;;;5.33;1.77;;;5.90;99.90;;;;;;5014515;28;20413;-72
2023/01/14 09:19:46;;;;;;;1.50;0.70;;;5.80;99.90;;;;;;5016663;28;20477;-72
2023/01/14 09:22:15;;;;;;;3.13;1.30;;;5.80;99.90;;;;;;5034930;28;20463;-72
2023/01/14 09:24:41;;;;;;;8.57;1.17;;;5.90;99.90;;;;;;5033573;28;20418;-72
2023/01/14 09:27:06;;;;;;;1.87;0.80;;;5.90;99.90;;;;;;5018543;28;20418;-71
2023/01/14 09:29:32;;;;;;;1.60;0.87;;;5.90;99.90;;;;;;5022686;28;20197;-71
2023/01/14 09:31:58;;;;;;;8.63;1.43;;;6.00;99.90;;;;;;5031529;28;20210;-71
2023/01/14 09:34:24;;;;;;;7.03;0.90;;;6.10;99.90;;;;;;5014008;28;20241;-72
2023/01/14 09:36:49;;;;;;;3.93;1.83;;;6.10;99.90;;;;;;4999710;28;20546;-72
2023/01/14 09:39:16;;;;;;;1.83;0.80;;;6.10;99.90;;;;;;5012387;28;20301;-72
2023/01/14 09:41:59;;;;;;;4.23;1.50;;;6.10;99.90;;;;;;5013203;28;20191;-72
2023/01/14 09:44:26;;;;;;;2.20;0.87;;;6.10;99.90;;;;;;5015745;28;20446;-72
2023/01/14 09:46:52;;;;;;;1.87;0.60;;;6.20;99.90;;;;;;5021525;28;20878;-72
2023/01/14 09:49:21;;;;;;;1.57;0.57;;;6.20;99.90;;;;;;5020477;28;20438;-72
2023/01/14 09:51:59;;;;;;;2.60;1.03;;;6.30;99.90;;;;;;5029354;28;20417;-72
2023/01/14 09:54:27;;;;;;;3.27;1.33;;;6.40;99.90;;;;;;5021524;28;20429;-72
2023/01/14 09:57:01;;;;;;;1.63;1.00;;;6.40;99.90;;;;;;5025196;28;20453;-73
2023/01/14 09:59:32;;;;;;;1.67;0.60;;;6.50;99.90;;;;;;5027791;28;20417;-72
2023/01/14 10:02:11;;;;;;;1.83;0.97;;;6.60;99.90;;;;;;5031634;28;20420;-72
2023/01/14 10:05:10;;;;;;;4.13;1.40;;;6.70;99.90;;;;;;5026283;28;20905;-72
2023/01/14 10:07:36;;;;;;;2.97;0.90;;;6.70;99.90;;;;;;5023991;28;20425;-72
2023/01/14 10:10:03;;;;;;;1.60;0.70;;;6.70;99.90;;;;;;5023343;28;20422;-73
2023/01/14 10:12:37;;;;;;;3.30;1.40;;;6.70;99.90;;;;;;5005385;28;20504;-73
2023/01/14 10:15:38;;;;;;;1.40;0.70;;;6.70;99.90;;;;;;5013669;28;20468;-72
2023/01/14 10:18:11;;;;;;;3.27;1.13;;;6.70;99.90;;;;;;5013271;28;20802;-73
2023/01/14 10:20:59;;;;;;;3.17;1.20;;;6.70;99.90;;;;;;5019821;28;20992;-73
2023/01/14 10:23:37;;;;;;;7.87;1.93;;;6.80;99.90;;;;;;5005031;28;20430;-73
2023/01/14 10:26:15;;;;;;;2.83;1.37;;;6.70;99.90;;;;;;5005179;28;20509;-72
2023/01/14 10:28:44;;;;;;;3.30;1.50;;;6.70;99.90;;;;;;5026606;28;20413;-73
2023/01/14 10:31:18;;;;;;;4.80;1.13;;;6.80;99.90;;;;;;5013949;28;20425;-73
2023/01/14 10:33:46;;;;;;;3.30;1.10;;;6.80;99.90;;;;;;5029903;28;20413;-73
2023/01/14 10:36:18;;;;;;;5.13;1.10;;;6.80;99.90;;;;;;5014165;28;20451;-73
2023/01/14 10:38:44;;;;;;;3.23;1.93;;;6.80;99.90;;;;;;5011601;28;20465;-73
2023/01/14 10:41:12;;;;;;;3.30;1.17;;;6.90;99.90;;;;;;5014936;28;21004;-73
2023/01/14 10:43:42;;;;;;;3.57;1.27;;;7.00;99.90;;;;;;5025229;28;20519;-73
2023/01/14 10:46:22;;;;;;;1.60;0.70;;;7.00;99.90;;;;;;5015130;28;20422;-73
2023/01/14 10:49:18;;;;;;;4.27;1.23;;;7.00;99.90;;;;;;5008258;28;20424;-74
2023/01/14 10:51:53;;;;;;;1.50;0.90;;;7.10;99.90;;;;;;5014084;28;20850;-72
2023/01/14 10:54:24;;;;;;;1.50;0.60;;;7.10;99.90;;;;;;5033153;28;20579;-73
2023/01/14 10:56:53;;;;;;;3.20;0.73;;;7.10;99.90;;;;;;5024357;28;20453;-73
2023/01/14 10:59:26;;;;;;;2.50;1.10;;;7.20;99.90;;;;;;5013314;28;20557;-73
2023/01/14 11:01:53;;;;;;;2.00;0.70;;;7.20;99.90;;;;;;5025598;28;20512;-73
2023/01/14 11:04:22;;;;;;;1.40;0.70;;;7.20;99.90;;;;;;5032694;28;20465;-73
2023/01/14 11:06:47;;;;;;;2.60;0.60;;;7.20;99.90;;;;;;5022883;28;20410;-73
2023/01/14 11:09:19;;;;;;;2.23;0.97;;;7.20;99.90;;;;;;5041771;28;20432;-73
2023/01/14 11:11:46;;;;;;;1.20;0.50;;;7.30;99.90;;;;;;5031640;28;20182;-74
2023/01/14 11:14:39;;;;;;;3.10;0.70;;;7.30;99.90;;;;;;5021224;28;20491;-73
2023/01/14 11:17:28;;;;;;;2.97;1.57;;;7.30;99.90;;;;;;5032643;28;20900;-73
2023/01/14 11:20:23;;;;;;;4.60;0.83;;;7.30;99.90;;;;;;5022698;28;20465;-73
2023/01/14 11:23:02;;;;;;;4.30;0.80;;;7.30;99.90;;;;;;5020294;28;20414;-73
2023/01/14 11:25:29;;;;;;;1.60;0.70;;;7.30;99.90;;;;;;5015797;28;20452;-73
2023/01/14 11:27:56;;;;;;;1.53;0.83;;;7.30;99.90;;;;;;5012985;28;21322;-73
2023/01/14 11:30:24;;;;;;;1.60;0.77;;;7.40;99.90;;;;;;5025418;28;20430;-73
2023/01/14 11:32:52;;;;;;;2.90;0.60;;;7.40;99.90;;;;;;5011327;28;20426;-74
2023/01/14 11:35:26;;;;;;;1.80;0.93;;;7.40;99.90;;;;;;5013105;28;20967;-73
2023/01/14 11:37:56;;;;;;;1.97;0.80;;;7.40;99.90;;;;;;5011741;28;20780;-73
2023/01/14 11:43:22;;;;;;;5.37;1.07;;;7.50;99.90;;;;;;5027718;28;20448;-73
2023/01/14 11:46:04;;;;;;;1.17;0.53;;;7.50;99.90;;;;;;5019301;28;20442;-73
2023/01/14 11:48:30;;;;;;;1.30;0.60;;;7.50;99.90;;;;;;5005252;28;20419;-73
2023/01/14 11:51:00;;;;;;;2.23;1.07;;;7.50;99.90;;;;;;5015396;28;20862;-73
2023/01/14 11:53:41;;;;;;;2.13;0.93;;;7.40;99.90;;;;;;5030558;28;20585;-72
2023/01/14 11:56:11;;;;;;;3.13;1.30;;;7.50;99.90;;;;;;5029790;28;20766;-74
2023/01/14 11:58:37;;;;;;;1.53;0.60;;;7.50;99.90;;;;;;5012210;28;20603;-73
2023/01/14 12:01:26;;;;;;;6.00;1.07;;;7.50;99.90;;;;;;5027140;28;20878;-73
2023/01/14 12:04:01;;;;;;;2.83;1.07;;;7.50;99.90;;;;;;5022410;28;20225;-73
2023/01/14 12:06:33;;;;;;;2.80;0.93;;;7.50;99.90;;;;;;5028054;28;20409;-72
2023/01/14 12:09:05;;;;;;;2.67;0.90;;;7.50;99.90;;;;;;5012462;28;20508;-73
2023/01/14 12:11:53;;;;;;;3.63;0.83;;;7.50;99.90;;;;;;4997921;28;20460;-73
2023/01/14 12:17:18;;;;;;;1.50;1.00;;;7.50;99.90;;;;;;5023103;28;20845;-72
2023/01/14 12:19:52;;;;;;;2.40;0.97;;;7.50;99.90;;;;;;5030816;28;20415;-72
2023/01/14 12:22:21;;;;;;;2.00;0.90;;;7.50;99.90;;;;;;5015352;28;20421;-73
2023/01/14 12:25:13;;;;;;;1.60;0.67;;;7.50;99.90;;;;;;5004585;28;20455;-71
2023/01/14 12:28:03;;;;;;;1.50;0.60;;;7.50;99.90;;;;;;5014815;28;20524;-72
2023/01/14 12:30:35;;;;;;;5.60;1.53;;;7.50;99.90;;;;;;5021236;28;20441;-72
2023/01/14 12:33:09;;;;;;;3.93;0.90;;;7.50;99.90;;;;;;5025616;28;20917;-72
2023/01/14 12:35:44;;;;;;;3.00;0.90;;;7.50;99.90;;;;;;5031121;28;20463;-72
2023/01/14 12:46:55;;;;;;;2.30;0.83;;;7.40;99.90;;;;;;5018594;28;20452;-73
2023/01/14 12:49:21;;;;;;;3.07;0.90;;;7.50;99.90;;;;;;5023981;28;20420;-73
2023/01/14 12:51:47;;;;;;;2.20;0.80;;;7.50;99.90;;;;;;5020412;28;20429;-73
2023/01/14 12:54:27;;;;;;;1.97;1.13;;;7.50;99.90;;;;;;5034457;28;20539;-73
2023/01/14 12:56:55;;;;;;;1.80;1.00;;;7.50;99.90;;;;;;5021204;28;20420;-73
2023/01/14 12:59:34;;;;;;;1.20;0.53;;;7.50;99.90;;;;;;5020266;28;20466;-73
2023/01/14 13:02:07;;;;;;;1.33;0.70;;;7.50;99.90;;;;;;5014803;28;20418;-73
2023/01/14 13:04:44;;;;;;;3.20;0.60;;;7.50;99.90;;;;;;5029441;28;20511;-73
2023/01/14 13:07:21;;;;;;;2.43;1.20;;;7.50;99.90;;;;;;5030134;28;20785;-72
2023/01/14 13:09:53;;;;;;;5.83;1.40;;;7.50;99.90;;;;;;5033706;28;20451;-72
2023/01/14 13:12:47;;;;;;;1.93;0.90;;;7.60;99.90;;;;;;5031766;28;20429;-73
2023/01/14 13:15:19;;;;;;;2.70;1.33;;;7.60;99.90;;;;;;5024403;28;20429;-73
2023/01/14 13:17:56;;;;;;;1.53;0.77;;;7.70;99.90;;;;;;5020392;28;20465;-72
2023/01/14 13:20:32;;;;;;;1.40;0.70;;;7.70;99.90;;;;;;5030791;28;20424;-72
2023/01/14 13:23:01;;;;;;;2.03;0.90;;;7.70;99.90;;;;;;5019111;28;20467;-73
2023/01/14 13:25:45;;;;;;;3.90;0.97;;;7.70;99.90;;;;;;5013920;28;20759;-72
2023/01/14 13:28:11;;;;;;;3.40;1.00;;;7.80;99.90;;;;;;5014166;28;20796;-71
2023/01/14 13:30:59;;;;;;;4.07;1.30;;;7.80;99.90;;;;;;5026738;28;20467;-72
2023/01/14 13:33:32;;;;;;;6.50;1.23;;;7.80;99.90;;;;;;5013935;28;20183;-71
2023/01/14 13:36:10;;;;;;;1.60;0.83;;;7.90;99.90;;;;;;5013324;28;20449;-73
2023/01/14 13:38:43;;;;;;;4.40;1.17;;;7.90;99.90;;;;;;5019553;28;20556;-73
2023/01/14 13:41:11;;;;;;;1.40;0.73;;;7.90;99.90;;;;;;5023240;28;20882;-73
2023/01/14 13:43:48;;;;;;;2.13;1.00;;;7.90;99.90;;;;;;5032979;28;20441;-72
2023/01/14 13:46:38;;;;;;;2.23;0.83;;;8.00;99.90;;;;;;5022765;28;20430;-73
2023/01/14 13:49:16;;;;;;;2.43;1.10;;;8.00;99.90;;;;;;5002059;28;20434;-72
2023/01/14 13:51:47;;;;;;;4.17;1.27;;;8.00;99.90;;;;;;5025523;28;20428;-72
2023/01/14 13:54:24;;;;;;;2.00;1.10;;;8.00;99.90;;;;;;5033214;28;20928;-73
2023/01/14 13:57:10;;;;;;;1.67;0.80;;;8.00;99.90;;;;;;5019837;28;20425;-73